Terminal Aerodrome Forecast
Issued by NWS

Home | Current Version | Previous Version | Text Only | Print | Product List | Glossary On
Versions: 1 2 3 4 5 6 7 8 9 10 11 12 13 14 15 16
000
FTUS42 TJSJ 211100
TAFJSJ
TAF
TJSJ 211137Z 2112/2212 VRB04KT P6SM VCSH FEW025
     FM211300 07008KT P6SM FEW030 SCT060
     FM211800 06012KT P6SM VCSH SCT030 SCT050
     FM212200 10006KT P6SM FEW030 SCT070=

USA.gov is the U.S. government's official web portal to all federal, state and local government web resources and services.